Time;durP1;ratioP1;P1;durP2;ratioP2;P2;SDS_P1;SDS_P2;PMS_P1;PMS_P2;Temp;Humidity;BMP_temperature;BMP_pressure;BME280_temperature;BME280_humidity;BME280_pressure;Samples;Min_cycle;Max_cycle;Signal;HPM_P1;HPM_P2
2021/04/24 00:00:56;;;;;;;;;;;;;;;20.19;26.92;100774.91;4370854;32;19991;-56
2021/04/24 00:03:23;;;;;;;;;;;;;;;20.35;26.63;100781.41;4366308;32;19975;-58
2021/04/24 00:05:49;;;;;;;;;;;;;;;20.39;26.60;100772.66;4366423;32;19997;-55
2021/04/24 00:08:16;;;;;;;;;;;;;;;20.40;26.61;100777.06;4371316;32;19951;-57
2021/04/24 00:10:42;;;;;;;;;;;;;;;20.27;26.76;100783.00;4358144;32;19959;-58
2021/04/24 00:13:07;;;;;;;;;;;;;;;20.28;26.68;100779.50;4360002;32;19993;-59
2021/04/24 00:15:33;;;;;;;;;;;;;;;20.24;26.78;100777.66;4374101;32;20336;-58
2021/04/24 00:17:59;;;;;;;;;;;;;;;20.27;26.71;100777.72;4373285;32;20001;-55
2021/04/24 00:20:25;;;;;;;;;;;;;;;20.24;26.84;100775.00;4357461;32;19970;-58
2021/04/24 00:22:51;;;;;;;;;;;;;;;20.18;26.88;100776.66;4358750;32;20511;-58
2021/04/24 00:25:17;;;;;;;;;;;;;;;20.27;26.68;100775.06;4372245;32;19947;-54
2021/04/24 00:27:43;;;;;;;;;;;;;;;20.20;26.73;100780.25;4373640;32;19959;-58
2021/04/24 00:30:09;;;;;;;;;;;;;;;20.31;26.61;100774.25;4360191;32;19947;-58
2021/04/24 00:32:35;;;;;;;;;;;;;;;20.14;26.90;100768.66;4358236;32;19955;-59
2021/04/24 00:35:01;;;;;;;;;;;;;;;20.05;27.06;100779.94;4364377;32;20303;-55
2021/04/24 00:37:26;;;;;;;;;;;;;;;20.15;26.92;100770.44;4373300;32;19974;-57
2021/04/24 00:39:53;;;;;;;;;;;;;;;20.17;26.82;100777.53;4363558;32;19956;-59
2021/04/24 00:42:18;;;;;;;;;;;;;;;20.14;26.88;100771.31;4358359;32;19977;-57
2021/04/24 00:44:44;;;;;;;;;;;;;;;20.19;26.74;100770.53;4358304;32;19951;-57
2021/04/24 00:47:10;;;;;;;;;;;;;;;20.23;26.62;100771.47;4357270;32;19947;-57
2021/04/24 00:49:36;;;;;;;;;;;;;;;20.21;26.74;100768.81;4365094;32;19974;-58
2021/04/24 00:52:02;;;;;;;;;;;;;;;20.20;26.69;100766.13;4373035;32;20369;-57
2021/04/24 00:54:28;;;;;;;;;;;;;;;20.19;26.70;100765.25;4366556;32;20214;-56
2021/04/24 00:56:54;;;;;;;;;;;;;;;20.11;26.91;100761.56;4364526;32;19966;-58
2021/04/24 00:59:20;;;;;;;;;;;;;;;20.14;26.72;100760.72;4368097;32;20265;-58
2021/04/24 01:01:45;;;;;;;;;;;;;;;20.13;26.75;100759.81;4358184;32;19955;-57
2021/04/24 01:04:11;;;;;;;;;;;;;;;20.10;26.82;100762.41;4357989;32;20370;-56
2021/04/24 01:06:37;;;;;;;;;;;;;;;20.12;26.80;100755.41;4373082;32;19966;-58
2021/04/24 01:09:03;;;;;;;;;;;;;;;20.09;26.83;100755.34;4370748;32;19950;-57
2021/04/24 01:11:29;;;;;;;;;;;;;;;20.12;26.77;100754.50;4358479;32;20264;-56
2021/04/24 01:13:55;;;;;;;;;;;;;;;20.16;26.74;100757.22;4358358;32;19998;-56
2021/04/24 01:16:21;;;;;;;;;;;;;;;20.14;26.80;100753.69;4372249;32;20030;-56
2021/04/24 01:18:46;;;;;;;;;;;;;;;20.17;26.66;100748.44;4371347;32;20359;-57
2021/04/24 01:21:12;;;;;;;;;;;;;;;20.18;26.57;100742.28;4358345;32;19947;-55
2021/04/24 01:23:38;;;;;;;;;;;;;;;20.18;26.64;100747.56;4358448;32;19952;-56
2021/04/24 01:26:04;;;;;;;;;;;;;;;20.00;26.81;100740.22;4369594;32;19956;-58
2021/04/24 01:28:30;;;;;;;;;;;;;;;20.07;26.73;100743.88;4372923;32;19955;-58
2021/04/24 01:30:56;;;;;;;;;;;;;;;20.09;26.71;100747.41;4361519;32;20561;-55
2021/04/24 01:33:22;;;;;;;;;;;;;;;20.05;26.83;100751.75;4356613;32;19971;-57
2021/04/24 01:35:48;;;;;;;;;;;;;;;20.09;26.75;100742.13;4358519;32;20319;-57
2021/04/24 01:38:13;;;;;;;;;;;;;;;20.06;26.79;100747.34;4357981;32;19952;-57
2021/04/24 01:40:39;;;;;;;;;;;;;;;20.12;26.69;100750.13;4356884;32;19955;-56
2021/04/24 01:43:06;;;;;;;;;;;;;;;20.14;26.62;100750.16;4357685;32;20536;-58
2021/04/24 01:45:32;;;;;;;;;;;;;;;20.04;26.77;100742.03;4364845;32;20336;-57
2021/04/24 01:47:58;;;;;;;;;;;;;;;20.00;26.88;100748.13;4372366;32;20029;-58
2021/04/24 01:50:24;;;;;;;;;;;;;;;20.02;26.86;100751.69;4365953;32;19978;-57
2021/04/24 01:52:50;;;;;;;;;;;;;;;19.99;26.86;100746.31;4357458;32;19956;-55
2021/04/24 01:55:16;;;;;;;;;;;;;;;20.02;26.76;100750.78;4361314;32;19986;-55
2021/04/24 01:57:42;;;;;;;;;;;;;;;19.96;27.03;100740.97;4372574;32;20257;-57
2021/04/24 02:00:08;;;;;;;;;;;;;;;19.86;27.21;100741.63;4369555;32;19970;-55
2021/04/24 02:02:33;;;;;;;;;;;;;;;19.94;26.99;100745.34;4371826;32;20346;-57
2021/04/24 02:04:59;;;;;;;;;;;;;;;19.87;27.12;100746.94;4370903;32;20006;-57
2021/04/24 02:07:25;;;;;;;;;;;;;;;19.95;27.01;100741.84;4356958;32;19966;-58
2021/04/24 02:09:51;;;;;;;;;;;;;;;19.93;27.06;100747.09;4356086;32;20053;-58
2021/04/24 02:12:17;;;;;;;;;;;;;;;20.02;26.85;100742.84;4372110;32;19959;-55
2021/04/24 02:14:43;;;;;;;;;;;;;;;19.97;26.98;100739.25;4372298;32;20001;-57
2021/04/24 02:17:09;;;;;;;;;;;;;;;19.92;27.06;100740.03;4356869;32;19956;-55
2021/04/24 02:19:35;;;;;;;;;;;;;;;19.85;27.11;100745.13;4357106;32;19998;-57
2021/04/24 02:22:01;;;;;;;;;;;;;;;19.88;27.09;100748.72;4357394;32;20364;-56
2021/04/24 02:24:27;;;;;;;;;;;;;;;19.90;27.02;100741.72;4356897;32;20019;-54
2021/04/24 02:26:52;;;;;;;;;;;;;;;19.84;27.05;100736.31;4367960;32;20009;-57
2021/04/24 02:29:18;;;;;;;;;;;;;;;19.89;27.04;100739.06;4371278;32;19960;-57
2021/04/24 02:31:44;;;;;;;;;;;;;;;19.86;27.08;100739.88;4361354;32;19950;-57
2021/04/24 02:34:12;;;;;;;;;;;;;;;19.89;27.04;100745.22;4356496;32;20323;-57
2021/04/24 02:36:38;;;;;;;;;;;;;;;19.84;27.19;100746.00;4356924;32;20358;-58
2021/04/24 02:39:04;;;;;;;;;;;;;;;19.87;27.06;100746.94;4356602;32;19952;-56
2021/04/24 02:41:30;;;;;;;;;;;;;;;19.88;27.08;100747.81;4364659;32;20361;-57
2021/04/24 02:43:56;;;;;;;;;;;;;;;19.83;27.13;100753.03;4372098;32;20006;-57
2021/04/24 02:46:22;;;;;;;;;;;;;;;19.90;27.10;100752.28;4365112;32;19979;-58
2021/04/24 02:48:48;;;;;;;;;;;;;;;19.91;27.06;100747.91;4356870;32;19974;-58
2021/04/24 02:51:14;;;;;;;;;;;;;;;19.91;27.05;100743.50;4360658;32;20558;-57
2021/04/24 02:53:39;;;;;;;;;;;;;;;19.93;27.02;100741.81;4372279;32;19961;-57
2021/04/24 02:56:05;;;;;;;;;;;;;;;19.88;27.09;100738.16;4367905;32;19956;-58
2021/04/24 02:58:31;;;;;;;;;;;;;;;19.90;27.06;100736.44;4357078;32;19994;-57
2021/04/24 03:00:57;;;;;;;;;;;;;;;19.88;27.06;100743.44;4358498;32;19955;-56
2021/04/24 03:03:23;;;;;;;;;;;;;;;19.93;27.02;100740.94;4355313;32;20296;-58
2021/04/24 03:05:49;;;;;;;;;;;;;;;19.92;26.96;100729.44;4356521;32;19994;-56
2021/04/24 03:08:15;;;;;;;;;;;;;;;19.89;27.06;100734.66;4356965;32;19952;-58
2021/04/24 03:10:41;;;;;;;;;;;;;;;19.89;27.11;100736.44;4355971;32;20010;-55
2021/04/24 03:13:06;;;;;;;;;;;;;;;19.83;27.13;100733.62;4370316;32;19995;-56
2021/04/24 03:15:32;;;;;;;;;;;;;;;19.87;27.06;100732.84;4371932;32;19973;-57
2021/04/24 03:17:58;;;;;;;;;;;;;;;19.81;27.10;100736.25;4358804;32;20415;-58
2021/04/24 03:20:24;;;;;;;;;;;;;;;19.85;27.11;100738.09;4355424;32;20035;-57
2021/04/24 03:22:50;;;;;;;;;;;;;;;19.86;27.09;100728.41;4368237;32;20347;-57
2021/04/24 03:25:16;;;;;;;;;;;;;;;19.88;27.06;100732.88;4371528;32;19983;-55
2021/04/24 03:27:42;;;;;;;;;;;;;;;19.86;27.13;100729.31;4361593;32;19959;-56
2021/04/24 03:30:08;;;;;;;;;;;;;;;19.86;27.06;100729.31;4355836;32;19977;-55
2021/04/24 03:32:33;;;;;;;;;;;;;;;19.85;27.03;100730.19;4356955;32;20001;-57
2021/04/24 03:34:59;;;;;;;;;;;;;;;19.85;27.14;100727.53;4356480;32;20478;-54
2021/04/24 03:37:25;;;;;;;;;;;;;;;19.78;27.19;100730.91;4356053;32;19959;-55
2021/04/24 03:39:51;;;;;;;;;;;;;;;19.83;27.17;100729.25;4355882;32;19951;-55
2021/04/24 03:42:17;;;;;;;;;;;;;;;19.79;27.18;100730.03;4364841;32;19951;-55
2021/04/24 03:44:43;;;;;;;;;;;;;;;19.76;27.23;100732.63;4374505;32;19955;-57
2021/04/24 03:47:09;;;;;;;;;;;;;;;19.78;27.23;100736.19;4368676;32;20328;-55
2021/04/24 03:49:35;;;;;;;;;;;;;;;19.80;27.21;100737.09;4359298;32;19959;-56
2021/04/24 03:52:01;;;;;;;;;;;;;;;19.84;27.13;100740.72;4361550;32;19963;-57
2021/04/24 03:54:26;;;;;;;;;;;;;;;19.77;27.22;100737.03;4373041;32;19985;-55
2021/04/24 03:56:52;;;;;;;;;;;;;;;19.71;27.34;100739.59;4372455;32;19974;-57
2021/04/24 03:59:18;;;;;;;;;;;;;;;19.74;27.27;100739.63;4358159;32;19955;-53
2021/04/24 04:01:44;;;;;;;;;;;;;;;19.73;27.30;100732.56;4360211;32;20045;-55
2021/04/24 04:04:10;;;;;;;;;;;;;;;19.76;27.24;100737.91;4373903;32;20378;-58
2021/04/24 04:06:36;;;;;;;;;;;;;;;19.74;27.26;100734.34;4373960;32;19974;-57
2021/04/24 04:09:02;;;;;;;;;;;;;;;19.77;27.20;100737.03;4359611;32;19985;-56
2021/04/24 04:11:27;;;;;;;;;;;;;;;19.76;27.21;100740.56;4358947;32;20328;-57
2021/04/24 04:13:53;;;;;;;;;;;;;;;19.71;27.24;100740.44;4371957;32;19974;-54
2021/04/24 04:16:19;;;;;;;;;;;;;;;19.74;27.23;100740.50;4373649;32;20249;-58
2021/04/24 04:18:45;;;;;;;;;;;;;;;19.67;27.31;100744.78;4361809;32;19955;-57
2021/04/24 04:21:11;;;;;;;;;;;;;;;19.75;27.29;100741.41;4358533;32;19947;-56
2021/04/24 04:23:37;;;;;;;;;;;;;;;19.73;27.29;100753.72;4361052;32;19959;-56
2021/04/24 04:26:03;;;;;;;;;;;;;;;19.69;27.30;100741.28;4358339;32;19967;-55
2021/04/24 04:28:29;;;;;;;;;;;;;;;19.67;27.32;100750.06;4367462;32;19988;-55
2021/04/24 04:30:54;;;;;;;;;;;;;;;19.72;27.33;100742.22;4373529;32;19955;-56
2021/04/24 04:33:20;;;;;;;;;;;;;;;19.70;27.34;100748.38;4372597;32;19954;-54
2021/04/24 04:35:46;;;;;;;;;;;;;;;19.71;27.32;100742.22;4373777;32;19998;-57
2021/04/24 04:38:12;;;;;;;;;;;;;;;19.68;27.34;100750.97;4367071;32;19947;-57
2021/04/24 04:40:38;;;;;;;;;;;;;;;19.65;27.38;100750.91;4357922;32;19962;-57
2021/04/24 04:43:04;;;;;;;;;;;;;;;19.65;27.38;100749.13;4362528;32;19966;-56
2021/04/24 04:45:30;;;;;;;;;;;;;;;19.67;27.40;100750.06;4373673;32;19951;-55
2021/04/24 04:47:56;;;;;;;;;;;;;;;19.67;27.42;100754.47;4369650;32;19951;-55
2021/04/24 04:50:21;;;;;;;;;;;;;;;19.63;27.45;100761.44;4357694;32;20276;-56
2021/04/24 04:52:47;;;;;;;;;;;;;;;19.65;27.47;100757.06;4363942;32;19969;-52
2021/04/24 04:55:13;;;;;;;;;;;;;;;19.71;27.34;100755.44;4357963;32;19993;-57
2021/04/24 04:57:39;;;;;;;;;;;;;;;19.68;27.39;100756.25;4358962;32;19990;-56
2021/04/24 05:00:05;;;;;;;;;;;;;;;19.65;27.43;100761.47;4372737;32;20320;-56
2021/04/24 05:02:31;;;;;;;;;;;;;;;19.69;27.32;100757.12;4372280;32;20303;-56
2021/04/24 05:04:57;;;;;;;;;;;;;;;19.64;27.43;100760.56;4359351;32;19948;-57
2021/04/24 05:07:23;;;;;;;;;;;;;;;19.65;27.42;100767.62;4360674;32;20526;-57
2021/04/24 05:09:48;;;;;;;;;;;;;;;19.63;27.45;100763.16;4359697;32;20023;-57
2021/04/24 05:12:14;;;;;;;;;;;;;;;19.65;27.40;100762.34;4358020;32;19959;-58
2021/04/24 05:14:40;;;;;;;;;;;;;;;19.67;27.39;100757.97;4358333;32;20297;-57
2021/04/24 05:17:06;;;;;;;;;;;;;;;19.73;27.35;100761.63;4357432;32;20034;-56
2021/04/24 05:19:32;;;;;;;;;;;;;;;19.66;27.45;100764.12;4367828;32;19964;-58
2021/04/24 05:21:58;;;;;;;;;;;;;;;19.64;27.48;100781.72;4372574;32;20394;-57
2021/04/24 05:24:24;;;;;;;;;;;;;;;19.63;27.53;100769.34;4363495;32;19956;-58
2021/04/24 05:26:50;;;;;;;;;;;;;;;19.66;27.46;100765.91;4358107;32;19991;-57
2021/04/24 05:29:16;;;;;;;;;;;;;;;19.70;27.43;100769.50;4364994;32;19939;-58
2021/04/24 05:31:42;;;;;;;;;;;;;;;19.72;27.42;100773.06;4371805;32;19969;-56
2021/04/24 05:34:08;;;;;;;;;;;;;;;19.70;27.44;100769.50;4366242;32;20796;-55
2021/04/24 05:36:34;;;;;;;;;;;;;;;19.71;27.42;100776.56;4357184;32;19952;-55
2021/04/24 05:39:00;;;;;;;;;;;;;;;19.75;27.41;100770.47;4365717;32;19955;-58
2021/04/24 05:41:26;;;;;;;;;;;;;;;19.71;27.44;100781.84;4357546;32;20030;-58
2021/04/24 05:43:52;;;;;;;;;;;;;;;19.73;27.44;100780.13;4360776;32;19966;-58
2021/04/24 05:46:18;;;;;;;;;;;;;;;19.71;27.49;100773.94;4372060;32;19993;-58
2021/04/24 05:48:43;;;;;;;;;;;;;;;19.70;27.52;100780.06;4370219;32;19959;-57
2021/04/24 05:51:09;;;;;;;;;;;;;;;19.68;27.54;100782.66;4357007;32;19955;-56
2021/04/24 05:53:35;;;;;;;;;;;;;;;19.65;27.65;100787.91;4358019;32;19993;-57
2021/04/24 05:56:01;;;;;;;;;;;;;;;19.63;27.71;100784.31;4370966;32;19958;-57
2021/04/24 05:58:27;;;;;;;;;;;;;;;19.73;27.59;100774.84;4372133;32;20001;-57
2021/04/24 06:00:53;;;;;;;;;;;;;;;19.70;27.46;100786.22;4356850;32;20598;-58
2021/04/24 06:03:19;;;;;;;;;;;;;;;19.74;27.46;100781.91;4366405;32;19977;-58
2021/04/24 06:05:45;;;;;;;;;;;;;;;19.70;27.61;100785.34;4359336;32;19955;-57
2021/04/24 06:08:11;;;;;;;;;;;;;;;19.72;27.47;100788.91;4356625;32;20335;-58
2021/04/24 06:10:37;;;;;;;;;;;;;;;19.71;27.68;100788.00;4367688;32;20018;-57
2021/04/24 06:13:02;;;;;;;;;;;;;;;19.69;27.77;100791.47;4372233;32;19950;-58
2021/04/24 06:15:28;;;;;;;;;;;;;;;19.65;27.66;100787.91;4361743;32;19956;-57
2021/04/24 06:17:54;;;;;;;;;;;;;;;19.66;27.71;100790.56;4356358;32;19975;-57
2021/04/24 06:20:20;;;;;;;;;;;;;;;19.71;27.68;100779.22;4365345;32;20020;-58
2021/04/24 06:22:46;;;;;;;;;;;;;;;19.77;27.59;100777.59;4372080;32;19982;-58
2021/04/24 06:25:12;;;;;;;;;;;;;;;19.75;27.62;100783.69;4363697;32;19951;-57
2021/04/24 06:27:38;;;;;;;;;;;;;;;19.70;27.73;100780.06;4369849;32;19959;-58
2021/04/24 06:30:04;;;;;;;;;;;;;;;19.71;27.71;100781.84;4367775;32;19943;-58
2021/04/24 06:32:30;;;;;;;;;;;;;;;19.72;27.79;100788.91;4361153;32;19955;-58
2021/04/24 06:34:56;;;;;;;;;;;;;;;19.77;27.71;100781.97;4367877;32;19947;-57
2021/04/24 06:37:22;;;;;;;;;;;;;;;19.72;27.76;100781.00;4359996;32;19959;-56
2021/04/24 06:39:48;;;;;;;;;;;;;;;19.63;27.98;100782.56;4363992;32;20042;-56
2021/04/24 06:42:14;;;;;;;;;;;;;;;19.65;27.98;100783.50;4362009;32;19963;-57
2021/04/24 06:44:40;;;;;;;;;;;;;;;19.71;27.83;100771.28;4365106;32;20059;-55
2021/04/24 06:47:06;;;;;;;;;;;;;;;19.79;27.69;100770.59;4364064;32;19965;-56
2021/04/24 06:49:32;;;;;;;;;;;;;;;19.74;27.80;100768.69;4364179;32;19952;-58
2021/04/24 06:51:58;;;;;;;;;;;;;;;19.78;27.74;100767.91;4365028;32;19954;-56
2021/04/24 06:54:24;;;;;;;;;;;;;;;19.85;27.69;100769.81;4362996;32;19979;-54
2021/04/24 06:56:50;;;;;;;;;;;;;;;19.83;27.73;100773.28;4365797;32;19960;-57
2021/04/24 06:59:16;;;;;;;;;;;;;;;19.91;27.60;100759.34;4363260;32;19974;-57
2021/04/24 07:01:42;;;;;;;;;;;;;;;19.86;27.75;100761.03;4365202;32;19955;-58
2021/04/24 07:04:08;;;;;;;;;;;;;;;19.80;27.86;100767.06;4365174;32;19965;-57
2021/04/24 07:06:34;;;;;;;;;;;;;;;19.84;27.78;100757.47;4364725;32;19972;-57
2021/04/24 07:09:00;;;;;;;;;;;;;;;19.82;27.84;100756.56;4365061;32;19967;-57
2021/04/24 07:11:26;;;;;;;;;;;;;;;19.86;27.79;100758.38;4364829;32;19964;-57
2021/04/24 07:13:52;;;;;;;;;;;;;;;19.92;27.71;100758.53;4364619;32;19955;-57
2021/04/24 07:16:18;;;;;;;;;;;;;;;19.85;27.76;100759.25;4366366;32;19969;-55
2021/04/24 07:18:44;;;;;;;;;;;;;;;19.86;27.82;100758.38;4367400;32;19984;-56
2021/04/24 07:21:10;;;;;;;;;;;;;;;19.88;27.79;100753.13;4367382;32;19977;-56
2021/04/24 07:23:37;;;;;;;;;;;;;;;19.84;27.81;100752.19;4368532;32;19959;-57
2021/04/24 07:26:03;;;;;;;;;;;;;;;19.82;27.93;100756.56;4368512;32;19990;-57
2021/04/24 07:28:29;;;;;;;;;;;;;;;19.87;27.90;100751.34;4367232;32;19951;-56
2021/04/24 07:30:55;;;;;;;;;;;;;;;19.87;27.91;100754.88;4366493;32;19982;-57
2021/04/24 07:33:23;;;;;;;;;;;;;;;19.90;27.86;100748.78;4367714;32;19943;-57
2021/04/24 07:35:49;;;;;;;;;;;;;;;19.91;27.84;100748.78;4367348;32;19977;-56
2021/04/24 07:38:15;;;;;;;;;;;;;;;19.92;27.85;100749.69;4367651;32;20377;-57
2021/04/24 07:40:41;;;;;;;;;;;;;;;20.03;27.70;100749.94;4369385;32;19952;-56
2021/04/24 07:43:07;;;;;;;;;;;;;;;19.92;27.89;100745.31;4358041;32;20318;-57
2021/04/24 07:45:33;;;;;;;;;;;;;;;19.91;27.95;100743.50;4359264;32;19961;-55
2021/04/24 07:47:59;;;;;;;;;;;;;;;19.84;28.06;100746.91;4373246;32;19979;-57
2021/04/24 07:50:24;;;;;;;;;;;;;;;19.79;28.12;100751.19;4371898;32;19978;-57
2021/04/24 07:52:50;;;;;;;;;;;;;;;19.94;27.96;100755.94;4359550;32;20007;-57
2021/04/24 07:55:16;;;;;;;;;;;;;;;19.87;28.05;100746.94;4360993;32;20390;-58
2021/04/24 07:57:42;;;;;;;;;;;;;;;19.83;28.18;100755.69;4359606;32;20102;-57
2021/04/24 08:00:08;;;;;;;;;;;;;;;19.93;28.04;100752.37;4357886;32;20287;-55
2021/04/24 08:02:34;;;;;;;;;;;;;;;19.87;28.11;100746.94;4370946;32;19966;-55
2021/04/24 08:05:00;;;;;;;;;;;;;;;19.91;28.10;100751.44;4373876;32;19970;-56
2021/04/24 08:07:26;;;;;;;;;;;;;;;19.91;28.15;100753.19;4367818;32;19985;-56
2021/04/24 08:09:51;;;;;;;;;;;;;;;19.95;28.05;100749.78;4369080;32;19970;-57
2021/04/24 08:12:17;;;;;;;;;;;;;;;19.94;28.09;100748.91;4363591;32;20387;-58
2021/04/24 08:14:43;;;;;;;;;;;;;;;19.92;28.18;100750.59;4361110;32;19955;-59
2021/04/24 08:17:09;;;;;;;;;;;;;;;19.91;28.32;100750.56;4363462;32;19947;-59
2021/04/24 08:19:35;;;;;;;;;;;;;;;19.93;28.30;100752.37;4357580;32;20005;-57
2021/04/24 08:22:01;;;;;;;;;;;;;;;20.03;28.13;100758.75;4363539;32;19969;-58
2021/04/24 08:24:28;;;;;;;;;;;;;;;20.08;28.08;100764.16;4370274;32;19967;-59
2021/04/24 08:26:54;;;;;;;;;;;;;;;20.04;28.14;100760.53;4368886;32;20051;-58
2021/04/24 08:29:20;;;;;;;;;;;;;;;20.01;28.19;100756.94;4361639;32;19947;-57
2021/04/24 08:31:46;;;;;;;;;;;;;;;19.98;28.33;100767.47;4361999;32;20336;-58
2021/04/24 08:34:12;;;;;;;;;;;;;;;19.93;28.41;100760.31;4369925;32;19971;-58
2021/04/24 08:36:37;;;;;;;;;;;;;;;19.93;28.43;100768.25;4368771;32;19997;-59
2021/04/24 08:39:03;;;;;;;;;;;;;;;19.99;28.42;100766.59;4372560;32;19955;-58
2021/04/24 08:41:30;;;;;;;;;;;;;;;20.07;28.28;100759.72;4371139;32;19963;-58
2021/04/24 08:43:56;;;;;;;;;;;;;;;20.07;28.28;100763.25;4358806;32;19947;-59
2021/04/24 08:46:23;;;;;;;;;;;;;;;20.07;28.29;100759.72;4358296;32;19952;-57
2021/04/24 08:48:49;;;;;;;;;;;;;;;20.06;28.33;100755.28;4372507;32;19950;-58
2021/04/24 08:51:15;;;;;;;;;;;;;;;20.10;28.27;100749.19;4373102;32;19947;-58
2021/04/24 08:53:41;;;;;;;;;;;;;;;20.16;28.22;100753.72;4359671;32;19985;-58
2021/04/24 08:56:07;;;;;;;;;;;;;;;20.14;28.23;100751.03;4357525;32;19991;-58
2021/04/24 08:58:33;;;;;;;;;;;;;;;20.14;28.29;100750.16;4358111;32;19981;-56
2021/04/24 09:00:59;;;;;;;;;;;;;;;20.18;28.22;100747.56;4357774;32;19948;-59
2021/04/24 09:03:25;;;;;;;;;;;;;;;20.18;28.26;100744.94;4366667;32;19988;-58
2021/04/24 09:05:51;;;;;;;;;;;;;;;20.17;28.30;100739.63;4372489;32;19956;-58
2021/04/24 09:08:17;;;;;;;;;;;;;;;20.16;28.33;100737.84;4362706;32;19982;-56
2021/04/24 09:10:44;;;;;;;;;;;;;;;20.14;28.38;100742.22;4361130;32;19963;-56
2021/04/24 09:13:10;;;;;;;;;;;;;;;19.79;27.42;100737.97;4371789;32;19954;-54
2021/04/24 09:15:36;;;;;;;;;;;;;;;19.61;28.09;100739.38;4364346;32;20960;-51
2021/04/24 09:18:02;;;;;;;;;;;;;;;19.49;27.95;100740.00;4367936;32;20011;-50
2021/04/24 09:20:28;;;;;;;;;;;;;;;19.49;28.03;100736.47;4362056;32;20051;-53
2021/04/24 09:22:54;;;;;;;;;;;;;;;19.45;28.17;100737.28;4362319;32;19986;-52
2021/04/24 09:25:19;;;;;;;;;;;;;;;19.22;28.41;100737.66;4362584;32;19975;-50
2021/04/24 09:27:48;;;;;;;;;;;;;;;19.45;28.37;100734.63;4371301;32;19969;-52
2021/04/24 09:30:14;;;;;;;;;;;;;;;19.23;28.56;100727.09;4366686;32;20362;-48
2021/04/24 09:32:40;;;;;;;;;;;;;;;19.44;28.36;100735.47;4364212;32;19959;-57
2021/04/24 09:35:06;;;;;;;;;;;;;;;19.12;28.55;100725.09;4366734;32;20024;-56
2021/04/24 09:37:32;;;;;;;;;;;;;;;19.00;28.66;100733.59;4366196;32;19976;-54
2021/04/24 09:39:58;;;;;;;;;;;;;;;18.80;28.98;100729.59;4361524;32;19943;-56
2021/04/24 09:42:24;;;;;;;;;;;;;;;18.94;28.86;100732.56;4362766;32;20265;-58
2021/04/24 09:44:50;;;;;;;;;;;;;;;18.91;28.88;100734.22;4368687;32;19955;-57
2021/04/24 09:47:15;;;;;;;;;;;;;;;19.01;28.52;100731.00;4372719;32;19935;-55
2021/04/24 09:49:41;;;;;;;;;;;;;;;19.09;28.46;100732.09;4358318;32;20341;-55
2021/04/24 09:52:11;;;;;;;;;;;;;;;19.27;28.30;100728.06;4358057;32;20001;-54
2021/04/24 09:54:37;;;;;;;;;;;;;;;19.36;28.23;100717.72;4371782;32;19959;-55
2021/04/24 09:57:03;;;;;;;;;;;;;;;19.45;28.09;100713.50;4372701;32;20279;-55
2021/04/24 09:59:29;;;;;;;;;;;;;;;19.64;27.93;100718.31;4360832;32;19998;-55
2021/04/24 10:01:55;;;;;;;;;;;;;;;19.74;27.84;100713.22;4358121;32;19962;-53
2021/04/24 10:04:21;;;;;;;;;;;;;;;19.78;27.70;100707.13;4368788;32;20507;-55
2021/04/24 10:06:47;;;;;;;;;;;;;;;19.66;28.14;100700.72;4373172;32;19974;-56
2021/04/24 10:09:13;;;;;;;;;;;;;;;19.78;27.87;100707.13;4362444;32;19951;-56
2021/04/24 10:11:39;;;;;;;;;;;;;;;19.76;27.94;100698.28;4358414;32;19956;-56
2021/04/24 10:14:05;;;;;;;;;;;;;;;19.79;27.91;100701.87;4365649;32;19994;-56
2021/04/24 10:16:31;;;;;;;;;;;;;;;19.79;27.85;100696.59;4372450;32;20273;-56
2021/04/24 10:18:56;;;;;;;;;;;;;;;19.83;27.87;100701.94;4365115;32;19940;-56
2021/04/24 10:21:22;;;;;;;;;;;;;;;19.86;27.79;100697.59;4357317;32;20088;-54
2021/04/24 10:23:48;;;;;;;;;;;;;;;19.85;27.85;100694.91;4363761;32;19943;-57
2021/04/24 10:26:14;;;;;;;;;;;;;;;19.80;27.97;100684.25;4372777;32;19943;-56
2021/04/24 10:28:40;;;;;;;;;;;;;;;19.82;28.06;100682.56;4363862;32;19994;-56
2021/04/24 10:31:06;;;;;;;;;;;;;;;19.92;27.91;100687.16;4356564;32;19998;-53
2021/04/24 10:33:32;;;;;;;;;;;;;;;19.92;27.85;100675.69;4359749;32;20328;-55
2021/04/24 10:35:58;;;;;;;;;;;;;;;19.97;27.75;100675.81;4371018;32;19951;-53
2021/04/24 10:38:24;;;;;;;;;;;;;;;19.94;27.77;100671.34;4370539;32;19955;-55
2021/04/24 10:40:50;;;;;;;;;;;;;;;19.96;27.81;100666.09;4356805;32;19990;-54
2021/04/24 10:43:15;;;;;;;;;;;;;;;19.97;27.79;100674.03;4355562;32;19950;-58
2021/04/24 10:45:41;;;;;;;;;;;;;;;20.01;27.61;100667.97;4371164;32;19965;-54
2021/04/24 10:48:07;;;;;;;;;;;;;;;19.60;27.61;100668.91;4361253;32;19954;-51
2021/04/24 10:50:33;;;;;;;;;;;;;;;19.56;28.10;100661.75;4369125;32;20636;-51
2021/04/24 10:52:59;;;;;;;;;;;;;;;19.48;27.91;100652.81;4371690;32;19947;-53
2021/04/24 10:55:25;;;;;;;;;;;;;;;19.10;28.69;100662.59;4359129;32;19943;-51
2021/04/24 10:57:51;;;;;;;;;;;;;;;19.46;27.90;100657.19;4355632;32;19975;-55
2021/04/24 11:00:17;;;;;;;;;;;;;;;19.60;28.23;100660.97;4366893;32;20021;-55
2021/04/24 11:02:43;;;;;;;;;;;;;;;19.64;28.20;100657.53;4367270;32;20328;-53
2021/04/24 11:05:08;;;;;;;;;;;;;;;19.74;28.20;100652.44;4361895;32;19948;-56
2021/04/24 11:07:34;;;;;;;;;;;;;;;19.82;28.05;100653.47;4356555;32;19979;-56
2021/04/24 11:10:00;;;;;;;;;;;;;;;19.92;27.79;100650.16;4363517;32;19966;-56
2021/04/24 11:12:26;;;;;;;;;;;;;;;19.94;27.72;100640.53;4370821;32;20289;-56
2021/04/24 11:14:52;;;;;;;;;;;;;;;19.97;27.69;100642.31;4364416;32;19940;-56
2021/04/24 11:17:18;;;;;;;;;;;;;;;20.04;27.59;100638.94;4367011;32;19955;-55
2021/04/24 11:19:45;;;;;;;;;;;;;;;20.19;27.40;100629.50;4365809;32;19964;-55
2021/04/24 11:22:11;;;;;;;;;;;;;;;20.26;27.35;100635.78;4355121;32;19989;-57
2021/04/24 11:24:36;;;;;;;;;;;;;;;20.27;27.37;100635.81;4358033;32;19951;-55
2021/04/24 11:27:02;;;;;;;;;;;;;;;20.31;27.39;100631.44;4369484;32;19993;-57
2021/04/24 11:29:28;;;;;;;;;;;;;;;20.31;27.44;100623.50;4367589;32;20501;-56
2021/04/24 11:31:54;;;;;;;;;;;;;;;20.33;27.43;100629.72;4355385;32;20022;-56
2021/04/24 11:34:20;;;;;;;;;;;;;;;20.37;27.41;100626.25;4357394;32;19993;-57
2021/04/24 11:36:46;;;;;;;;;;;;;;;20.39;27.40;100632.47;4371783;32;19962;-54
2021/04/24 11:39:12;;;;;;;;;;;;;;;20.36;27.43;100627.13;4370154;32;19958;-51
2021/04/24 11:41:38;;;;;;;;;;;;;;;20.30;27.70;100624.38;4356064;32;20000;-53
2021/04/24 11:44:04;;;;;;;;;;;;;;;20.29;27.67;100612.00;4356346;32;19966;-56
2021/04/24 11:46:30;;;;;;;;;;;;;;;20.26;27.71;100627.84;4368749;32;20336;-55
2021/04/24 11:48:56;;;;;;;;;;;;;;;20.31;27.64;100623.50;4366882;32;19947;-55
2021/04/24 11:51:22;;;;;;;;;;;;;;;20.23;27.78;100618.09;4363611;32;20366;-55
2021/04/24 11:53:48;;;;;;;;;;;;;;;20.32;27.70;100618.25;4360302;32;19951;-53
2021/04/24 11:56:14;;;;;;;;;;;;;;;20.38;27.45;100611.28;4366968;32;20013;-56
2021/04/24 11:58:40;;;;;;;;;;;;;;;20.42;27.50;100618.41;4370476;32;19952;-56
2021/04/24 12:01:06;;;;;;;;;;;;;;;20.44;27.54;100604.34;4360479;32;19993;-55
2021/04/24 12:03:32;;;;;;;;;;;;;;;20.48;27.56;100607.91;4358833;32;19951;-55
2021/04/24 12:05:58;;;;;;;;;;;;;;;20.50;27.55;100606.19;4367889;32;20048;-54
2021/04/24 12:08:24;;;;;;;;;;;;;;;20.56;27.48;100605.38;4365240;32;19951;-57
2021/04/24 12:10:55;;;;;;;;;;;;;;;20.56;27.51;100597.44;4368261;32;19970;-53
2021/04/24 12:13:21;;;;;;;;;;;;;;;20.58;27.55;100587.78;4373102;32;19961;-54
2021/04/24 12:15:46;;;;;;;;;;;;;;;20.61;27.54;100591.34;4368984;32;19979;-53
2021/04/24 12:18:12;;;;;;;;;;;;;;;20.64;27.56;100587.88;4366255;32;19966;-54
2021/04/24 12:20:38;;;;;;;;;;;;;;;20.69;27.46;100587.94;4368199;32;19990;-55
2021/04/24 12:23:04;;;;;;;;;;;;;;;20.68;27.51;100573.84;4359203;32;19963;-55
2021/04/24 12:25:30;;;;;;;;;;;;;;;20.71;27.52;100583.56;4367304;32;20007;-55
2021/04/24 12:27:56;;;;;;;;;;;;;;;20.70;27.59;100582.69;4367668;32;19951;-54